createdAt,value
2023-07-03T00:01:16.913Z,4.32
2023-07-03T00:03:43.316Z,3.95
2023-07-03T00:06:09.717Z,5.40
2023-07-03T00:08:36.430Z,5.97
2023-07-03T00:11:05.305Z,3.95
2023-07-03T00:13:31.692Z,4.68
2023-07-03T00:16:02.529Z,5.30
2023-07-03T00:18:29.937Z,5.18
2023-07-03T00:20:57.290Z,5.95
2023-07-03T00:23:25.475Z,5.70
2023-07-03T00:25:52.417Z,5.38
2023-07-03T00:28:19.727Z,4.95
2023-07-03T00:30:46.558Z,5.53
2023-07-03T00:33:13.232Z,4.32
2023-07-03T00:35:40.268Z,5.38
2023-07-03T00:38:06.728Z,5.07
2023-07-03T00:40:33.586Z,4.45
2023-07-03T00:43:00.140Z,4.70
2023-07-03T00:45:26.584Z,5.75
2023-07-03T00:47:53.769Z,4.93
2023-07-03T00:50:21.219Z,4.75
2023-07-03T00:52:53.076Z,4.40
2023-07-03T00:55:20.949Z,5.80
2023-07-03T00:57:47.361Z,5.75
2023-07-03T01:00:14.227Z,5.40
2023-07-03T01:03:06.506Z,5.45
2023-07-03T01:05:41.173Z,5.28
2023-07-03T01:08:07.831Z,4.75
2023-07-03T01:10:34.591Z,4.65
2023-07-03T01:13:05.436Z,4.35
2023-07-03T01:15:35.074Z,4.75
2023-07-03T01:18:04.446Z,4.38
2023-07-03T01:20:36.842Z,5.00
2023-07-03T01:23:12.675Z,5.40
2023-07-03T01:25:42.036Z,4.53
2023-07-03T01:28:12.298Z,4.78
2023-07-03T01:30:42.549Z,4.88
2023-07-03T01:33:15.173Z,6.40
2023-07-03T01:35:42.048Z,4.78
2023-07-03T01:38:09.689Z,5.38
2023-07-03T01:40:36.549Z,5.22
2023-07-03T01:43:03.618Z,6.40
2023-07-03T01:45:34.631Z,6.20
2023-07-03T01:48:01.074Z,5.82
2023-07-03T01:50:30.669Z,4.95
2023-07-03T01:53:05.667Z,4.93
2023-07-03T01:55:44.514Z,5.75
2023-07-03T01:58:36.921Z,7.85
2023-07-03T02:01:11.406Z,5.47
2023-07-03T02:03:49.159Z,5.38
2023-07-03T02:06:24.799Z,4.88
2023-07-03T02:08:53.660Z,5.53
2023-07-03T02:11:23.598Z,4.63
2023-07-03T02:13:50.704Z,6.15
2023-07-03T02:16:17.191Z,6.50
2023-07-03T02:18:44.364Z,6.38
2023-07-03T02:21:11.090Z,4.47
2023-07-03T02:23:37.514Z,7.40
2023-07-03T02:26:04.153Z,8.00
2023-07-03T02:28:30.584Z,4.90
2023-07-03T02:30:57.104Z,5.93
2023-07-03T02:33:23.534Z,5.55
2023-07-03T02:35:50.228Z,5.60
2023-07-03T02:38:17.013Z,5.78
2023-07-03T02:40:43.718Z,5.20
2023-07-03T02:43:10.372Z,6.32
2023-07-03T02:45:41.401Z,4.68
2023-07-03T02:48:11.355Z,5.65
2023-07-03T02:50:38.226Z,5.50
2023-07-03T02:53:04.602Z,4.45
2023-07-03T02:55:31.056Z,4.88
2023-07-03T02:57:59.192Z,5.50
2023-07-03T03:00:26.502Z,4.43
2023-07-03T03:02:52.985Z,5.20
2023-07-03T03:05:19.513Z,5.90
2023-07-03T03:07:45.978Z,5.30
2023-07-03T03:10:12.400Z,3.92
2023-07-03T03:12:38.732Z,5.07
2023-07-03T03:15:06.703Z,5.50
2023-07-03T03:17:33.200Z,5.60
2023-07-03T03:20:00.255Z,5.15
2023-07-03T03:22:26.765Z,3.97
2023-07-03T03:24:53.129Z,3.92
2023-07-03T03:27:19.484Z,5.88
2023-07-03T03:29:45.940Z,4.95
2023-07-03T03:32:12.323Z,4.43
2023-07-03T03:34:38.721Z,5.72
2023-07-03T03:37:05.893Z,5.25
2023-07-03T03:39:32.274Z,5.53
2023-07-03T03:41:58.719Z,4.82
2023-07-03T03:44:25.144Z,4.60
2023-07-03T03:46:54.154Z,4.22
2023-07-03T03:49:21.355Z,4.70
2023-07-03T03:51:48.563Z,3.42
2023-07-03T03:54:14.947Z,4.60
2023-07-03T03:56:41.288Z,3.72
2023-07-03T03:59:07.688Z,6.05
2023-07-03T04:01:35.529Z,3.58
2023-07-03T04:04:02.491Z,3.90
2023-07-03T04:06:29.217Z,4.15
2023-07-03T04:08:59.741Z,3.75
2023-07-03T04:11:29.349Z,5.00
2023-07-03T04:13:55.803Z,4.70
2023-07-03T04:16:23.067Z,3.78
2023-07-03T04:18:49.434Z,4.75
2023-07-03T04:21:17.873Z,5.50
2023-07-03T04:23:45.338Z,6.03
2023-07-03T04:26:11.736Z,5.80
2023-07-03T04:28:38.100Z,5.35
2023-07-03T04:31:04.575Z,5.85
2023-07-03T04:33:30.987Z,4.90
2023-07-03T04:35:57.357Z,5.75
2023-07-03T04:38:25.455Z,4.82
2023-07-03T04:40:54.179Z,4.03
2023-07-03T04:43:21.729Z,4.20
2023-07-03T04:45:51.245Z,5.15
2023-07-03T04:48:19.050Z,6.70
2023-07-03T04:50:49.527Z,4.50
2023-07-03T04:53:17.465Z,7.00
2023-07-03T04:55:44.150Z,4.25
2023-07-03T04:58:12.249Z,5.72
2023-07-03T05:00:40.924Z,4.55
2023-07-03T05:03:09.058Z,4.43
2023-07-03T05:05:35.928Z,5.22
2023-07-03T05:08:02.349Z,4.18
2023-07-03T05:10:28.812Z,4.68
2023-07-03T05:12:55.178Z,4.82
2023-07-03T05:15:21.868Z,4.68
2023-07-03T05:17:53.634Z,5.05
2023-07-03T05:20:20.362Z,5.65
2023-07-03T05:22:47.238Z,4.85
2023-07-03T05:25:15.198Z,4.47
2023-07-03T05:27:42.060Z,4.05
2023-07-03T05:30:09.813Z,4.03
2023-07-03T05:32:36.945Z,4.30
2023-07-03T05:35:05.217Z,3.88
2023-07-03T05:37:31.982Z,5.03
2023-07-03T05:39:58.377Z,5.45
2023-07-03T05:42:24.824Z,4.72
2023-07-03T05:44:51.399Z,6.40
2023-07-03T05:47:18.306Z,5.57
2023-07-03T05:49:44.941Z,5.68
2023-07-03T05:52:12.007Z,4.35
2023-07-03T05:54:38.783Z,5.93
2023-07-03T05:57:11.027Z,5.38
2023-07-03T05:59:39.685Z,4.20
2023-07-03T06:02:12.832Z,5.47
2023-07-03T06:04:39.678Z,5.25
2023-07-03T06:07:07.616Z,4.25
2023-07-03T06:09:37.257Z,5.40
2023-07-03T06:12:04.150Z,4.85
2023-07-03T06:14:31.623Z,5.15
2023-07-03T06:16:59.757Z,5.05
2023-07-03T06:19:27.535Z,5.97
2023-07-03T06:21:54.397Z,4.00
2023-07-03T06:24:20.810Z,4.13
2023-07-03T06:26:47.221Z,4.10
2023-07-03T06:29:15.239Z,6.68
2023-07-03T06:31:41.896Z,5.47
2023-07-03T06:34:08.382Z,5.30
2023-07-03T06:36:35.884Z,5.47
2023-07-03T06:39:05.721Z,4.88
2023-07-03T06:41:35.287Z,4.78
2023-07-03T06:44:02.876Z,4.97
2023-07-03T06:46:29.547Z,5.30
2023-07-03T06:48:56.702Z,4.72
2023-07-03T06:51:23.993Z,5.32
2023-07-03T06:53:50.397Z,5.05
2023-07-03T06:56:20.688Z,5.15
2023-07-03T06:58:50.754Z,5.90
2023-07-03T07:03:45.570Z,4.15
2023-07-03T07:06:15.419Z,5.00
2023-07-03T07:08:42.164Z,5.57
2023-07-03T07:11:17.926Z,5.75
2023-07-03T07:13:47.605Z,4.63
2023-07-03T07:16:23.099Z,4.47
2023-07-03T07:18:52.214Z,4.82
2023-07-03T07:21:19.374Z,5.90
2023-07-03T07:23:54.576Z,4.47
2023-07-03T07:26:23.033Z,6.25
2023-07-03T07:28:49.945Z,7.60
2023-07-03T07:31:24.588Z,4.88
2023-07-03T07:33:51.491Z,4.90
2023-07-03T07:36:20.798Z,4.75
2023-07-03T07:38:49.448Z,6.40
2023-07-03T07:41:15.838Z,6.07
2023-07-03T07:43:42.238Z,4.22
2023-07-03T07:46:08.767Z,3.53
2023-07-03T07:48:35.461Z,5.35
2023-07-03T07:51:07.142Z,6.43
2023-07-03T07:53:33.992Z,4.18
2023-07-03T07:56:01.026Z,5.28
2023-07-03T07:58:27.979Z,4.28
2023-07-03T08:00:57.589Z,6.40
2023-07-03T08:03:25.040Z,5.88
2023-07-03T08:06:05.579Z,4.72
2023-07-03T08:08:33.617Z,4.80
2023-07-03T08:11:02.503Z,6.10
2023-07-03T08:13:33.947Z,5.50
2023-07-03T08:16:00.454Z,4.78
2023-07-03T08:18:27.293Z,4.75
2023-07-03T08:20:54.271Z,4.32
2023-07-03T08:23:21.357Z,5.03
2023-07-03T08:25:52.653Z,3.92
2023-07-03T08:28:19.694Z,4.25
2023-07-03T08:30:46.357Z,4.40
2023-07-03T08:33:14.308Z,4.93
2023-07-03T08:40:37.397Z,5.85
2023-07-03T08:43:05.979Z,4.40
2023-07-03T08:45:38.979Z,5.50
2023-07-03T08:48:19.294Z,3.83
2023-07-03T08:50:51.103Z,4.50
2023-07-03T08:53:25.065Z,4.75
2023-07-03T08:56:15.329Z,5.72
2023-07-03T08:58:42.221Z,4.47
2023-07-03T09:01:36.521Z,3.50
2023-07-03T09:04:27.693Z,4.18
2023-07-03T09:06:59.342Z,5.18
2023-07-03T09:09:42.800Z,4.00
2023-07-03T09:12:38.936Z,3.95
2023-07-03T09:15:15.490Z,4.50
2023-07-03T09:17:43.225Z,4.55
2023-07-03T09:20:13.192Z,4.05
2023-07-03T09:23:20.863Z,4.72
2023-07-03T09:26:04.527Z,5.10
2023-07-03T09:28:37.958Z,3.63
2023-07-03T09:31:05.186Z,3.10
2023-07-03T09:33:32.097Z,3.75
2023-07-03T09:36:03.845Z,4.93
2023-07-03T09:38:36.946Z,3.53
2023-07-03T09:41:05.406Z,3.80
2023-07-03T09:43:32.734Z,4.20
2023-07-03T09:46:22.396Z,4.53
2023-07-03T09:48:48.938Z,3.92
2023-07-03T09:51:21.446Z,3.90
2023-07-03T09:53:48.964Z,5.07
2023-07-03T09:56:17.945Z,3.70
2023-07-03T09:58:48.874Z,4.22
2023-07-03T10:04:03.291Z,3.70
2023-07-03T10:06:30.476Z,3.28
2023-07-03T10:11:44.592Z,5.72
2023-07-03T10:17:42.039Z,3.13
2023-07-03T10:20:23.793Z,3.70
2023-07-03T10:22:52.490Z,3.17
2023-07-03T10:25:27.984Z,3.78
2023-07-03T10:27:59.141Z,4.28
2023-07-03T10:30:29.799Z,4.78
2023-07-03T10:32:59.552Z,3.60
2023-07-03T10:38:22.459Z,3.83
2023-07-03T10:40:58.667Z,3.30
2023-07-03T10:43:29.641Z,4.15
2023-07-03T10:45:56.509Z,4.40
2023-07-03T10:48:27.878Z,4.03
2023-07-03T10:51:06.796Z,2.80
2023-07-03T10:53:48.109Z,3.88
2023-07-03T10:56:25.720Z,3.60
2023-07-03T10:59:20.935Z,4.13
2023-07-03T11:02:24.044Z,4.72
2023-07-03T11:05:03.953Z,4.88
2023-07-03T11:07:59.926Z,4.15
2023-07-03T11:10:54.600Z,5.05
2023-07-03T11:16:19.987Z,3.53
2023-07-03T11:24:52.007Z,3.75
2023-07-03T11:29:59.263Z,3.58
2023-07-03T11:32:26.899Z,4.57
2023-07-03T11:40:28.176Z,4.30
2023-07-03T11:45:40.225Z,3.08
2023-07-03T11:48:38.912Z,4.78
2023-07-03T11:51:08.378Z,4.88
2023-07-03T11:53:45.124Z,3.50
2023-07-03T11:56:37.082Z,3.58
2023-07-03T11:59:11.088Z,3.00
2023-07-03T12:01:37.996Z,3.28
2023-07-03T12:04:08.772Z,3.10
2023-07-03T12:06:41.124Z,4.40
2023-07-03T12:09:26.121Z,3.95
2023-07-03T12:12:15.395Z,5.03
2023-07-03T12:14:47.143Z,3.60
2023-07-03T12:17:25.747Z,3.85
2023-07-03T12:20:07.765Z,5.82
2023-07-03T12:22:52.159Z,4.53
2023-07-03T12:25:20.413Z,3.92
2023-07-03T12:27:48.891Z,5.47
2023-07-03T12:30:41.993Z,4.20
2023-07-03T12:33:08.378Z,3.28
2023-07-03T12:35:38.431Z,5.18
2023-07-03T12:38:09.723Z,4.63
2023-07-03T12:40:47.268Z,3.28
2023-07-03T12:43:19.251Z,5.18
2023-07-03T12:45:54.655Z,4.00
2023-07-03T12:48:24.550Z,3.95
2023-07-03T12:50:57.155Z,5.03
2023-07-03T12:53:25.411Z,5.00
2023-07-03T12:55:56.817Z,3.47
2023-07-03T12:58:25.378Z,5.07
2023-07-03T13:01:09.093Z,4.13
2023-07-03T13:03:43.877Z,3.85
2023-07-03T13:06:27.268Z,4.70
2023-07-03T13:08:55.418Z,4.32
2023-07-03T13:11:51.628Z,4.50
2023-07-03T13:14:26.533Z,3.95
2023-07-03T13:16:58.685Z,4.80
2023-07-03T13:19:36.300Z,3.85
2023-07-03T13:22:19.179Z,7.22
2023-07-03T13:24:48.572Z,3.67
2023-07-03T13:27:27.159Z,5.30
2023-07-03T13:29:58.949Z,4.68
2023-07-03T13:32:26.530Z,5.90
2023-07-03T13:35:01.566Z,5.55
2023-07-03T13:37:31.145Z,3.88
2023-07-03T13:40:01.712Z,4.63
2023-07-03T13:42:29.070Z,4.82
2023-07-03T13:44:55.508Z,4.53
2023-07-03T13:47:22.037Z,4.63
2023-07-03T13:49:48.489Z,5.28
2023-07-03T13:52:14.884Z,5.63
2023-07-03T13:54:41.260Z,4.07
2023-07-03T13:57:07.672Z,5.50
2023-07-03T13:59:34.048Z,4.50
2023-07-03T14:02:01.626Z,4.68
2023-07-03T14:04:28.137Z,5.13
2023-07-03T14:06:54.684Z,4.32
2023-07-03T14:09:21.370Z,4.30
2023-07-03T14:11:47.847Z,5.05
2023-07-03T14:14:14.287Z,5.20
2023-07-03T14:16:43.134Z,4.75
2023-07-03T14:19:09.528Z,4.72
2023-07-03T14:21:36.260Z,4.40
2023-07-03T14:24:02.762Z,4.40
2023-07-03T14:26:30.295Z,4.95
2023-07-03T14:28:56.764Z,6.15
2023-07-03T14:31:23.173Z,5.18
2023-07-03T14:33:49.569Z,5.13
2023-07-03T14:36:15.992Z,5.05
2023-07-03T14:38:42.469Z,6.03
2023-07-03T14:41:09.498Z,4.88
2023-07-03T14:43:35.921Z,3.90
2023-07-03T14:46:02.402Z,5.45
2023-07-03T14:48:29.026Z,5.63
2023-07-03T14:50:55.491Z,5.32
2023-07-03T14:53:21.935Z,4.63
2023-07-03T14:55:56.035Z,4.40
2023-07-03T14:58:23.474Z,4.97
2023-07-03T15:00:50.207Z,5.18
2023-07-03T15:03:16.812Z,6.03
2023-07-03T15:05:43.484Z,5.72
2023-07-03T15:08:10.255Z,5.55
2023-07-03T15:10:37.848Z,5.13
2023-07-03T15:13:06.415Z,6.20
2023-07-03T15:15:32.949Z,5.68
2023-07-03T15:18:00.452Z,5.25
2023-07-03T15:20:26.955Z,5.50
2023-07-03T15:22:53.858Z,6.32
2023-07-03T15:25:21.033Z,6.63
2023-07-03T15:27:47.773Z,7.47
2023-07-03T15:30:14.304Z,5.85
2023-07-03T15:32:40.887Z,6.70
2023-07-03T15:35:08.025Z,5.82
2023-07-03T15:37:34.569Z,5.38
2023-07-03T15:40:01.084Z,6.07
2023-07-03T15:42:27.574Z,6.43
2023-07-03T15:44:58.259Z,6.25
2023-07-03T15:47:25.497Z,6.32
2023-07-03T15:49:56.679Z,5.90
2023-07-03T15:52:23.369Z,9.63
2023-07-03T15:54:51.929Z,6.97
2023-07-03T15:57:19.029Z,6.35
2023-07-03T15:59:45.580Z,6.72
2023-07-03T16:02:12.109Z,5.90
2023-07-03T16:04:38.816Z,6.03
2023-07-03T16:07:05.552Z,6.90
2023-07-03T16:09:31.937Z,7.80
2023-07-03T16:11:58.310Z,7.60
2023-07-03T16:14:24.919Z,6.75
2023-07-03T16:16:51.289Z,7.60
2023-07-03T16:19:17.749Z,7.03
2023-07-03T16:21:44.117Z,7.93
2023-07-03T16:24:10.517Z,8.25
2023-07-03T16:26:36.957Z,8.07
2023-07-03T16:29:07.844Z,8.68
2023-07-03T16:31:34.257Z,7.60
2023-07-03T16:34:02.177Z,6.32
2023-07-03T16:36:30.405Z,7.00
2023-07-03T16:39:04.795Z,7.18
2023-07-03T16:41:35.233Z,7.82
2023-07-03T16:44:01.859Z,7.72
2023-07-03T16:46:29.569Z,8.48
2023-07-03T16:48:57.458Z,7.00
2023-07-03T16:51:25.770Z,7.38
2023-07-03T16:53:52.258Z,8.52
2023-07-03T16:56:24.750Z,9.10
2023-07-03T16:58:52.724Z,9.68
2023-07-03T17:01:22.567Z,7.93
2023-07-03T17:06:22.359Z,6.97
2023-07-03T17:08:50.160Z,9.65
2023-07-03T17:11:16.639Z,7.13
2023-07-03T17:13:44.037Z,7.15
2023-07-03T17:16:10.973Z,7.15
2023-07-03T17:18:37.411Z,7.15
2023-07-03T17:21:03.974Z,7.57
2023-07-03T17:23:31.036Z,7.90
2023-07-03T17:25:57.593Z,6.13
2023-07-03T17:28:24.386Z,6.75
2023-07-03T17:30:51.434Z,6.57
2023-07-03T17:33:17.916Z,6.30
2023-07-03T17:35:45.983Z,6.95
2023-07-03T17:38:14.247Z,7.13
2023-07-03T17:40:43.769Z,7.82
2023-07-03T17:43:11.677Z,7.13
2023-07-03T17:45:38.108Z,6.88
2023-07-03T17:48:05.043Z,6.82
2023-07-03T17:50:31.592Z,5.90
2023-07-03T17:52:57.973Z,6.95
2023-07-03T17:55:24.421Z,6.80
2023-07-03T17:57:50.792Z,8.85
2023-07-03T18:00:17.999Z,7.22
2023-07-03T18:02:44.612Z,7.50
2023-07-03T18:05:12.573Z,6.85
2023-07-03T18:07:41.825Z,6.70
2023-07-03T18:10:09.813Z,7.80
2023-07-03T18:12:36.628Z,6.82
2023-07-03T18:15:03.102Z,7.10
2023-07-03T18:17:29.627Z,6.07
2023-07-03T18:19:56.008Z,6.43
2023-07-03T18:22:23.417Z,7.72
2023-07-03T18:24:50.630Z,6.32
2023-07-03T18:27:16.990Z,6.80
2023-07-03T18:29:43.355Z,6.32
2023-07-03T18:32:12.834Z,6.30
2023-07-03T18:34:39.356Z,6.05
2023-07-03T18:37:05.798Z,6.57
2023-07-03T18:39:32.332Z,7.78
2023-07-03T18:41:58.839Z,10.07
2023-07-03T18:44:27.152Z,8.20
2023-07-03T18:46:53.493Z,6.90
2023-07-03T18:49:20.118Z,6.85
2023-07-03T18:51:47.297Z,7.78
2023-07-03T18:54:15.636Z,6.55
2023-07-03T18:56:42.038Z,6.93
2023-07-03T18:59:09.508Z,7.30
2023-07-03T19:01:37.942Z,6.38
2023-07-03T19:04:04.634Z,7.10
2023-07-03T19:06:31.381Z,5.97
2023-07-03T19:08:57.771Z,6.55
2023-07-03T19:11:24.165Z,6.70
2023-07-03T19:13:50.585Z,7.32
2023-07-03T19:16:18.140Z,7.60
2023-07-03T19:18:45.868Z,8.00
2023-07-03T19:21:16.996Z,6.95
2023-07-03T19:23:43.767Z,7.32
2023-07-03T19:26:12.381Z,6.18
2023-07-03T19:28:39.713Z,6.88
2023-07-03T19:31:06.307Z,6.45
2023-07-03T19:33:32.902Z,6.72
2023-07-03T19:36:02.367Z,6.95
2023-07-03T19:38:29.779Z,7.55
2023-07-03T19:40:56.162Z,6.82
2023-07-03T19:43:22.804Z,6.72
2023-07-03T19:45:49.606Z,7.00
2023-07-03T19:48:16.840Z,7.45
2023-07-03T19:50:43.289Z,7.40
2023-07-03T19:53:10.375Z,8.20
2023-07-03T19:55:37.803Z,7.85
2023-07-03T19:58:04.297Z,6.45
2023-07-03T20:00:30.857Z,8.02
2023-07-03T20:02:57.383Z,8.55
2023-07-03T20:05:24.199Z,7.32
2023-07-03T20:07:52.375Z,7.10
2023-07-03T20:10:19.587Z,7.70
2023-07-03T20:12:51.384Z,8.15
2023-07-03T20:15:20.365Z,6.97
2023-07-03T20:17:47.143Z,7.13
2023-07-03T20:20:14.922Z,8.27
2023-07-03T20:22:45.109Z,7.32
2023-07-03T20:25:11.910Z,8.68
2023-07-03T20:27:38.788Z,8.68
2023-07-03T20:30:06.186Z,7.03
2023-07-03T20:32:34.638Z,8.35
2023-07-03T20:35:01.812Z,7.13
2023-07-03T20:37:28.462Z,10.25
2023-07-03T20:39:58.173Z,6.93
2023-07-03T20:42:24.746Z,6.90
2023-07-03T20:44:51.169Z,13.63
2023-07-03T20:47:17.540Z,8.45
2023-07-03T20:49:43.950Z,8.00
2023-07-03T20:52:12.169Z,7.53
2023-07-03T20:54:44.127Z,7.75
2023-07-03T20:57:10.979Z,7.68
2023-07-03T20:59:37.438Z,7.35
2023-07-03T21:02:04.317Z,7.25
2023-07-03T21:04:30.716Z,6.20
2023-07-03T21:06:58.039Z,7.63
2023-07-03T21:09:24.447Z,7.38
2023-07-03T21:11:51.259Z,6.85
2023-07-03T21:14:18.714Z,6.78
2023-07-03T21:16:45.184Z,7.85
2023-07-03T21:19:13.488Z,7.22
2023-07-03T21:21:40.306Z,5.90
2023-07-03T21:24:09.500Z,5.90
2023-07-03T21:26:36.363Z,6.90
2023-07-03T21:29:03.584Z,7.22
2023-07-03T21:31:32.767Z,6.97
2023-07-03T21:33:59.638Z,6.22
2023-07-03T21:36:28.435Z,7.07
2023-07-03T21:38:57.244Z,6.78
2023-07-03T21:41:29.194Z,6.80
2023-07-03T21:43:58.761Z,6.40
2023-07-03T21:46:27.680Z,7.38
2023-07-03T21:48:56.961Z,5.97
2023-07-03T21:51:26.789Z,7.53
2023-07-03T21:53:54.877Z,6.57
2023-07-03T21:56:30.208Z,6.75
2023-07-03T21:59:02.363Z,6.38
2023-07-03T22:01:31.841Z,6.10
2023-07-03T22:04:00.528Z,6.65
2023-07-03T22:06:28.097Z,6.78
2023-07-03T22:08:55.815Z,7.93
2023-07-03T22:11:23.544Z,7.10
2023-07-03T22:13:50.563Z,5.85
2023-07-03T22:16:18.117Z,7.30
2023-07-03T22:18:45.753Z,6.32
2023-07-03T22:21:13.536Z,5.93
2023-07-03T22:23:39.959Z,7.72
2023-07-03T22:26:07.554Z,5.57
2023-07-03T22:28:33.961Z,6.45
2023-07-03T22:31:00.984Z,4.95
2023-07-03T22:33:29.178Z,6.55
2023-07-03T22:35:55.661Z,5.50
2023-07-03T22:38:25.109Z,6.68
2023-07-03T22:40:52.353Z,6.30
2023-07-03T22:43:19.976Z,5.60
2023-07-03T22:45:46.470Z,6.25
2023-07-03T22:48:14.246Z,5.10
2023-07-03T22:50:42.294Z,5.30
2023-07-03T22:53:09.621Z,4.57
2023-07-03T22:55:42.054Z,6.85
2023-07-03T22:58:09.986Z,5.53
2023-07-03T23:00:39.312Z,5.78
2023-07-03T23:03:06.384Z,5.60
2023-07-03T23:05:45.886Z,6.50
2023-07-03T23:08:14.896Z,6.25
2023-07-03T23:10:55.850Z,4.97
2023-07-03T23:13:24.350Z,6.63
2023-07-03T23:15:59.388Z,6.32
2023-07-03T23:18:25.979Z,5.57
2023-07-03T23:21:01.840Z,5.35
2023-07-03T23:23:32.332Z,6.40
2023-07-03T23:26:06.828Z,7.05
2023-07-03T23:28:35.835Z,7.75
2023-07-03T23:31:11.337Z,9.30
2023-07-03T23:33:39.508Z,11.55
2023-07-03T23:36:10.610Z,10.10
2023-07-03T23:38:38.421Z,9.10
2023-07-03T23:41:09.284Z,7.47
2023-07-03T23:43:37.843Z,10.05
2023-07-03T23:46:07.381Z,9.85
2023-07-03T23:48:34.347Z,8.70
2023-07-03T23:51:03.823Z,9.73
2023-07-03T23:53:35.506Z,6.55
2023-07-03T23:56:06.474Z,6.65
2023-07-03T23:58:37.535Z,6.38
